Time;durP1;ratioP1;P1;durP2;ratioP2;P2;SDS_P1;SDS_P2;PMS_P1;PMS_P2;Temp;Humidity;BMP_temperature;BMP_pressure;BME280_temperature;BME280_humidity;BME280_pressure;Samples;Min_cycle;Max_cycle;Signal;HPM_P1;HPM_P2
2023/09/10 00:00:36;;;;;;;;;;;;;;;;;;4969256;28;20016;-89
2023/09/10 00:03:02;;;;;;;;;;;;;;;;;;4970669;28;19930;-90
2023/09/10 00:05:28;;;;;;;;;;;;;;;;;;4977529;28;19924;-90
2023/09/10 00:07:54;;;;;;;;;;;;;;;;;;4982081;28;19917;-87
2023/09/10 00:10:21;;;;;;;;;;;;;;;;;;4991843;28;19918;-88
2023/09/10 00:12:47;;;;;;;;;;;;;;;;;;4965060;28;19923;-87
2023/09/10 00:15:13;;;;;;;;;;;;;;;;;;4964387;28;19948;-87
2023/09/10 00:17:39;;;;;;;;;;;;;;;;;;4973845;28;19965;-87
2023/09/10 00:20:06;;;;;;;;;;;;;;;;;;4970509;28;20441;-87
2023/09/10 00:22:32;;;;;;;;;;;;;;;;;;4979175;28;19922;-88
2023/09/10 00:24:58;;;;;;;;;;;;;;;;;;4973999;28;20004;-88
2023/09/10 00:27:24;;;;;;;;;;;;;;;;;;4972506;28;20377;-88
2023/09/10 00:29:50;;;;;;;;;;;;;;;;;;4976511;28;19969;-87
2023/09/10 00:32:16;;;;;;;;;;;;;;;;;;4979680;28;19914;-87
2023/09/10 00:34:42;;;;;;;;;;;;;;;;;;4976756;28;19928;-87
2023/09/10 00:37:08;;;;;;;;;;;;;;;;;;4982084;28;19913;-88
2023/09/10 00:39:34;;;;;;;;;;;;;;;;;;4977642;28;19913;-88
2023/09/10 00:42:00;;;;;;;;;;;;;;;;;;4972949;28;19921;-88
2023/09/10 00:44:26;;;;;;;;;;;;;;;;;;4975015;28;20173;-87
2023/09/10 00:46:55;;;;;;;;;;;;;;;;;;4974965;28;19914;-87
2023/09/10 00:49:21;;;;;;;;;;;;;;;;;;4974585;28;19953;-87
2023/09/10 00:51:47;;;;;;;;;;;;;;;;;;4977419;28;19921;-87
2023/09/10 00:54:13;;;;;;;;;;;;;;;;;;4971837;28;20431;-88
2023/09/10 00:56:39;;;;;;;;;;;;;;;;;;4984061;28;19918;-87
2023/09/10 00:59:05;;;;;;;;;;;;;;;;;;4976108;28;19913;-88
2023/09/10 01:01:30;;;;;;;;;;;;;;;;;;4975890;28;19925;-87
2023/09/10 01:03:56;;;;;;;;;;;;;;;;;;4967214;28;19925;-87
2023/09/10 01:06:22;;;;;;;;;;;;;;;;;;4973560;28;20020;-88
2023/09/10 01:08:48;;;;;;;;;;;;;;;;;;4981089;28;20058;-88
2023/09/10 01:11:14;;;;;;;;;;;;;;;;;;4971368;28;19964;-89
2023/09/10 01:13:40;;;;;;;;;;;;;;;;;;4972853;28;20290;-87
2023/09/10 01:16:06;;;;;;;;;;;;;;;;;;4966569;28;20314;-88
2023/09/10 01:18:32;;;;;;;;;;;;;;;;;;4974228;28;19917;-89
2023/09/10 01:20:58;;;;;;;;;;;;;;;;;;4972240;28;19914;-89
2023/09/10 01:23:25;;;;;;;;;;;;;;;;;;4974738;28;20254;-89
2023/09/10 01:25:51;;;;;;;;;;;;;;;;;;4991369;28;19948;-89
2023/09/10 01:28:17;;;;;;;;;;;;;;;;;;4976561;28;19921;-89
2023/09/10 01:30:44;;;;;;;;;;;;;;;;;;4976142;28;20024;-89
2023/09/10 01:33:10;;;;;;;;;;;;;;;;;;4978470;28;19975;-89
2023/09/10 01:35:36;;;;;;;;;;;;;;;;;;4992733;28;19923;-89
2023/09/10 01:38:02;;;;;;;;;;;;;;;;;;4975345;28;19922;-89
2023/09/10 01:40:28;;;;;;;;;;;;;;;;;;4977567;28;19976;-89
2023/09/10 01:42:54;;;;;;;;;;;;;;;;;;4975743;28;19953;-89
2023/09/10 01:45:20;;;;;;;;;;;;;;;;;;4978311;28;20135;-90
2023/09/10 01:47:46;;;;;;;;;;;;;;;;;;4977745;28;20409;-89
2023/09/10 01:50:12;;;;;;;;;;;;;;;;;;4975023;28;19918;-89
2023/09/10 01:52:38;;;;;;;;;;;;;;;;;;4993396;28;19925;-90
2023/09/10 01:55:04;;;;;;;;;;;;;;;;;;4979050;28;19914;-87
2023/09/10 01:57:30;;;;;;;;;;;;;;;;;;4990682;28;19936;-87
2023/09/10 01:59:56;;;;;;;;;;;;;;;;;;4965542;28;19918;-87
2023/09/10 02:02:22;;;;;;;;;;;;;;;;;;4967865;28;19996;-87
2023/09/10 02:04:47;;;;;;;;;;;;;;;;;;4974831;28;19925;-86
2023/09/10 02:07:13;;;;;;;;;;;;;;;;;;4974207;28;20108;-90
2023/09/10 02:09:39;;;;;;;;;;;;;;;;;;4976064;28;19928;-91
2023/09/10 02:12:05;;;;;;;;;;;;;;;;;;4971444;28;19914;-91
2023/09/10 02:14:31;;;;;;;;;;;;;;;;;;4987326;28;20009;-90
2023/09/10 02:16:57;;;;;;;;;;;;;;;;;;4977899;28;19928;-90
2023/09/10 02:19:23;;;;;;;;;;;;;;;;;;4980838;28;19910;-90
2023/09/10 02:21:51;;;;;;;;;;;;;;;;;;4976063;28;19929;-92
2023/09/10 02:24:17;;;;;;;;;;;;;;;;;;4982077;28;19936;-91
2023/09/10 02:26:43;;;;;;;;;;;;;;;;;;4977994;28;19917;-91
2023/09/10 02:29:09;;;;;;;;;;;;;;;;;;4975621;28;19918;-91
2023/09/10 02:31:35;;;;;;;;;;;;;;;;;;4977168;28;19913;-91
2023/09/10 02:34:01;;;;;;;;;;;;;;;;;;4977241;28;20133;-93
2023/09/10 02:36:27;;;;;;;;;;;;;;;;;;4972230;28;20601;-91
2023/09/10 02:38:53;;;;;;;;;;;;;;;;;;4984011;28;19940;-91
2023/09/10 02:41:19;;;;;;;;;;;;;;;;;;4977812;28;20328;-92
2023/09/10 02:43:45;;;;;;;;;;;;;;;;;;4975162;28;19989;-90
2023/09/10 02:46:11;;;;;;;;;;;;;;;;;;4977091;28;19921;-92
2023/09/10 02:48:37;;;;;;;;;;;;;;;;;;4973283;28;19925;-89
2023/09/10 02:51:03;;;;;;;;;;;;;;;;;;4975015;28;19918;-91
2023/09/10 02:53:39;;;;;;;;;;;;;;;;;;4975179;28;19914;-89
2023/09/10 02:56:05;;;;;;;;;;;;;;;;;;4974744;28;20425;-91
2023/09/10 02:58:30;;;;;;;;;;;;;;;;;;4977626;28;20008;-92
2023/09/10 03:00:57;;;;;;;;;;;;;;;;;;4968420;28;19928;-92
2023/09/10 03:03:23;;;;;;;;;;;;;;;;;;4978451;28;19914;-92
2023/09/10 03:05:48;;;;;;;;;;;;;;;;;;4983371;28;19986;-91
2023/09/10 03:08:15;;;;;;;;;;;;;;;;;;4975876;28;19926;-92
2023/09/10 03:10:41;;;;;;;;;;;;;;;;;;4969050;28;20697;-91
2023/09/10 03:13:07;;;;;;;;;;;;;;;;;;4977270;28;20000;-91
2023/09/10 03:15:33;;;;;;;;;;;;;;;;;;4986048;28;19913;-91
2023/09/10 03:17:59;;;;;;;;;;;;;;;;;;4977420;28;19985;-88
2023/09/10 03:20:25;;;;;;;;;;;;;;;;;;4969123;28;19922;-88
2023/09/10 03:22:54;;;;;;;;;;;;;;;;;;4971342;28;19941;-88
2023/09/10 03:25:20;;;;;;;;;;;;;;;;;;4971033;28;20370;-88
2023/09/10 03:27:46;;;;;;;;;;;;;;;;;;4973316;28;19925;-87
2023/09/10 03:30:12;;;;;;;;;;;;;;;;;;4971488;28;19932;-88
2023/09/10 03:32:38;;;;;;;;;;;;;;;;;;4973313;28;20015;-87
2023/09/10 03:35:05;;;;;;;;;;;;;;;;;;4974494;28;19926;-88
2023/09/10 03:37:30;;;;;;;;;;;;;;;;;;4964797;28;20362;-86
2023/09/10 03:39:56;;;;;;;;;;;;;;;;;;4971828;28;19930;-87
2023/09/10 03:42:22;;;;;;;;;;;;;;;;;;4973639;28;19920;-87
2023/09/10 03:44:48;;;;;;;;;;;;;;;;;;4974176;28;19921;-86
2023/09/10 03:47:14;;;;;;;;;;;;;;;;;;4986819;28;19921;-87
2023/09/10 03:49:40;;;;;;;;;;;;;;;;;;4970270;28;19948;-87
2023/09/10 03:52:06;;;;;;;;;;;;;;;;;;4971532;28;19925;-86
2023/09/10 03:54:32;;;;;;;;;;;;;;;;;;4977711;28;19917;-86
2023/09/10 03:56:58;;;;;;;;;;;;;;;;;;4975139;28;20418;-87
2023/09/10 03:59:24;;;;;;;;;;;;;;;;;;4969601;28;19917;-87
2023/09/10 04:01:49;;;;;;;;;;;;;;;;;;4961864;28;19926;-87
2023/09/10 04:04:15;;;;;;;;;;;;;;;;;;4972682;28;19914;-87
2023/09/10 04:06:41;;;;;;;;;;;;;;;;;;4965691;28;19929;-87
2023/09/10 04:09:07;;;;;;;;;;;;;;;;;;4973204;28;19925;-86
2023/09/10 04:11:33;;;;;;;;;;;;;;;;;;4964511;28;19921;-87
2023/09/10 04:13:59;;;;;;;;;;;;;;;;;;4991534;28;19914;-87
2023/09/10 04:16:26;;;;;;;;;;;;;;;;;;4964116;28;19922;-87
2023/09/10 04:18:59;;;;;;;;;;;;;;;;;;4971099;28;20332;-87
2023/09/10 04:21:25;;;;;;;;;;;;;;;;;;4965234;28;20508;-87
2023/09/10 04:23:51;;;;;;;;;;;;;;;;;;4965939;28;19968;-86
2023/09/10 04:26:17;;;;;;;;;;;;;;;;;;4977781;28;19917;-91
2023/09/10 04:28:43;;;;;;;;;;;;;;;;;;4975961;28;19918;-91
2023/09/10 04:31:09;;;;;;;;;;;;;;;;;;4974278;28;20259;-89
2023/09/10 04:33:35;;;;;;;;;;;;;;;;;;4983931;28;20201;-92
2023/09/10 04:36:01;;;;;;;;;;;;;;;;;;4976935;28;19996;-92
2023/09/10 04:38:27;;;;;;;;;;;;;;;;;;4977430;28;19968;-92
2023/09/10 04:40:53;;;;;;;;;;;;;;;;;;4975396;28;19914;-92
2023/09/10 04:43:19;;;;;;;;;;;;;;;;;;4992324;28;20008;-91
2023/09/10 04:45:44;;;;;;;;;;;;;;;;;;4973883;28;19913;-92
2023/09/10 04:48:12;;;;;;;;;;;;;;;;;;4979408;28;19922;-88
2023/09/10 04:50:38;;;;;;;;;;;;;;;;;;4971684;28;19918;-87
2023/09/10 04:53:04;;;;;;;;;;;;;;;;;;4968079;28;20045;-88
2023/09/10 04:55:30;;;;;;;;;;;;;;;;;;4994626;28;20024;-88
2023/09/10 04:57:56;;;;;;;;;;;;;;;;;;4971343;28;19996;-88
2023/09/10 05:00:22;;;;;;;;;;;;;;;;;;4972260;28;20023;-88
2023/09/10 05:02:48;;;;;;;;;;;;;;;;;;4968133;28;20010;-88
2023/09/10 05:05:14;;;;;;;;;;;;;;;;;;4973946;28;20024;-88
2023/09/10 05:07:40;;;;;;;;;;;;;;;;;;4970710;28;20421;-87
2023/09/10 05:10:06;;;;;;;;;;;;;;;;;;4972175;28;19914;-87
2023/09/10 05:12:32;;;;;;;;;;;;;;;;;;4975719;28;19945;-87
2023/09/10 05:14:58;;;;;;;;;;;;;;;;;;4971137;28;20278;-87
2023/09/10 05:17:24;;;;;;;;;;;;;;;;;;4970469;28;19917;-87
2023/09/10 05:19:50;;;;;;;;;;;;;;;;;;4972357;28;19986;-87
2023/09/10 05:22:16;;;;;;;;;;;;;;;;;;4966802;28;19995;-87
2023/09/10 05:24:42;;;;;;;;;;;;;;;;;;4973800;28;19949;-87
2023/09/10 05:27:08;;;;;;;;;;;;;;;;;;4983784;28;19971;-87
2023/09/10 05:29:37;;;;;;;;;;;;;;;;;;4971944;28;19935;-86
2023/09/10 05:32:03;;;;;;;;;;;;;;;;;;4970444;28;19941;-87
2023/09/10 05:34:29;;;;;;;;;;;;;;;;;;4982558;28;20259;-88
2023/09/10 05:36:54;;;;;;;;;;;;;;;;;;4970271;28;19963;-86
2023/09/10 05:39:20;;;;;;;;;;;;;;;;;;4972774;28;19964;-88
2023/09/10 05:41:46;;;;;;;;;;;;;;;;;;4976142;28;20000;-87
2023/09/10 05:44:12;;;;;;;;;;;;;;;;;;4974644;28;19928;-88
2023/09/10 05:46:38;;;;;;;;;;;;;;;;;;4971355;28;20274;-87
2023/09/10 05:49:04;;;;;;;;;;;;;;;;;;4972766;28;19914;-87
2023/09/10 05:51:30;;;;;;;;;;;;;;;;;;4989051;28;19918;-87
2023/09/10 05:53:56;;;;;;;;;;;;;;;;;;4972942;28;19914;-87
2023/09/10 05:56:22;;;;;;;;;;;;;;;;;;4975313;28;19928;-88
2023/09/10 05:58:48;;;;;;;;;;;;;;;;;;4964123;28;20146;-87
2023/09/10 06:01:14;;;;;;;;;;;;;;;;;;4989353;28;20329;-87
2023/09/10 06:03:40;;;;;;;;;;;;;;;;;;4975010;28;20571;-87
2023/09/10 06:06:06;;;;;;;;;;;;;;;;;;4987944;28;19918;-87
2023/09/10 06:08:32;;;;;;;;;;;;;;;;;;4969179;28;19922;-88
2023/09/10 06:10:58;;;;;;;;;;;;;;;;;;4975716;28;19914;-88
2023/09/10 06:13:24;;;;;;;;;;;;;;;;;;4985070;28;19918;-88
2023/09/10 06:15:49;;;;;;;;;;;;;;;;;;4972083;28;19945;-88
2023/09/10 06:18:21;;;;;;;;;;;;;;;;;;4970038;28;19946;-88
2023/09/10 06:20:47;;;;;;;;;;;;;;;;;;4989241;28;19914;-89
2023/09/10 06:23:16;;;;;;;;;;;;;;;;;;4973210;28;19972;-88
2023/09/10 06:25:42;;;;;;;;;;;;;;;;;;4994405;28;20734;-89
2023/09/10 06:28:08;;;;;;;;;;;;;;;;;;4976064;28;19929;-89
2023/09/10 06:30:42;;;;;;;;;;;;;;;;;;4974974;28;21703;-89
2023/09/10 06:33:08;;;;;;;;;;;;;;;;;;4977417;28;19940;-88
2023/09/10 06:35:34;;;;;;;;;;;;;;;;;;4983959;28;19918;-88
2023/09/10 06:38:00;;;;;;;;;;;;;;;;;;4979049;28;20425;-89
2023/09/10 06:40:26;;;;;;;;;;;;;;;;;;4976150;28;19957;-89
2023/09/10 06:42:52;;;;;;;;;;;;;;;;;;4973517;28;19918;-88
2023/09/10 06:45:18;;;;;;;;;;;;;;;;;;4978779;28;19972;-89
2023/09/10 06:47:44;;;;;;;;;;;;;;;;;;4975818;28;20354;-86
2023/09/10 06:50:10;;;;;;;;;;;;;;;;;;4965389;28;19913;-88
2023/09/10 06:52:36;;;;;;;;;;;;;;;;;;4985265;28;19914;-86
2023/09/10 06:55:02;;;;;;;;;;;;;;;;;;4972575;28;19929;-89
2023/09/10 06:57:32;;;;;;;;;;;;;;;;;;4980396;28;19914;-87
2023/09/10 06:59:58;;;;;;;;;;;;;;;;;;4988716;28;19921;-87
2023/09/10 07:02:25;;;;;;;;;;;;;;;;;;4970164;28;19913;-87
2023/09/10 07:04:54;;;;;;;;;;;;;;;;;;4973731;28;20717;-88
2023/09/10 07:07:20;;;;;;;;;;;;;;;;;;4986396;28;19990;-87
2023/09/10 07:09:46;;;;;;;;;;;;;;;;;;4972420;28;19926;-87
2023/09/10 07:12:12;;;;;;;;;;;;;;;;;;4963614;28;20494;-86
2023/09/10 07:14:38;;;;;;;;;;;;;;;;;;4974687;28;19914;-87
2023/09/10 07:17:04;;;;;;;;;;;;;;;;;;4973090;28;19921;-88
2023/09/10 07:19:29;;;;;;;;;;;;;;;;;;4974192;28;20207;-87
2023/09/10 07:21:55;;;;;;;;;;;;;;;;;;4967857;28;19913;-87
2023/09/10 07:24:22;;;;;;;;;;;;;;;;;;4973303;28;19914;-88
2023/09/10 07:26:47;;;;;;;;;;;;;;;;;;4977383;28;20266;-88
2023/09/10 07:29:16;;;;;;;;;;;;;;;;;;4976437;28;19928;-88
2023/09/10 07:31:42;;;;;;;;;;;;;;;;;;4976196;28;20028;-88
2023/09/10 07:34:14;;;;;;;;;;;;;;;;;;4975072;28;19957;-88
2023/09/10 07:36:40;;;;;;;;;;;;;;;;;;4968156;28;20428;-88
2023/09/10 07:39:07;;;;;;;;;;;;;;;;;;4986696;28;19921;-88
2023/09/10 07:41:33;;;;;;;;;;;;;;;;;;4987561;28;19971;-88
2023/09/10 07:43:59;;;;;;;;;;;;;;;;;;4972705;28;20007;-89
2023/09/10 07:46:25;;;;;;;;;;;;;;;;;;4972478;28;19981;-87
2023/09/10 07:48:51;;;;;;;;;;;;;;;;;;4972983;28;19925;-89
2023/09/10 07:51:17;;;;;;;;;;;;;;;;;;4975893;28;20274;-88
2023/09/10 07:53:43;;;;;;;;;;;;;;;;;;4975970;28;19922;-88
2023/09/10 07:56:09;;;;;;;;;;;;;;;;;;4973430;28;19919;-87
2023/09/10 07:58:35;;;;;;;;;;;;;;;;;;4974153;28;19917;-86
2023/09/10 08:01:01;;;;;;;;;;;;;;;;;;4991872;28;20028;-86
2023/09/10 08:03:27;;;;;;;;;;;;;;;;;;4974740;28;20344;-88
2023/09/10 08:05:53;;;;;;;;;;;;;;;;;;4987038;28;19914;-87
2023/09/10 08:08:40;;;;;;;;;;;;;;;;;;4987299;28;19922;-86
2023/09/10 08:11:05;;;;;;;;;;;;;;;;;;4981521;28;19914;-87
2023/09/10 08:13:31;;;;;;;;;;;;;;;;;;4970347;28;19925;-87
2023/09/10 08:15:58;;;;;;;;;;;;;;;;;;4971801;28;19911;-87
2023/09/10 08:18:24;;;;;;;;;;;;;;;;;;4970555;28;19937;-87
2023/09/10 08:20:50;;;;;;;;;;;;;;;;;;4967443;28;20000;-86
2023/09/10 08:23:16;;;;;;;;;;;;;;;;;;4967099;28;19914;-87
2023/09/10 08:25:42;;;;;;;;;;;;;;;;;;4970890;28;20366;-87
2023/09/10 08:28:08;;;;;;;;;;;;;;;;;;4978772;28;19925;-91
2023/09/10 08:30:34;;;;;;;;;;;;;;;;;;4979446;28;19917;-91
2023/09/10 08:33:00;;;;;;;;;;;;;;;;;;4973101;28;19926;-91
2023/09/10 08:35:25;;;;;;;;;;;;;;;;;;4974291;28;19922;-91
2023/09/10 08:37:51;;;;;;;;;;;;;;;;;;4977520;28;19932;-92
2023/09/10 08:40:17;;;;;;;;;;;;;;;;;;4985186;28;19913;-91
2023/09/10 08:42:59;;;;;;;;;;;;;;;;;;4977413;28;19921;-91
2023/09/10 08:45:24;;;;;;;;;;;;;;;;;;4978358;28;19982;-92
2023/09/10 08:47:50;;;;;;;;;;;;;;;;;;4974946;28;20355;-89
2023/09/10 08:50:16;;;;;;;;;;;;;;;;;;4978972;28;19913;-93
2023/09/10 08:52:43;;;;;;;;;;;;;;;;;;4974168;28;19918;-92
2023/09/10 08:55:09;;;;;;;;;;;;;;;;;;4994593;28;19918;-91
2023/09/10 08:57:35;;;;;;;;;;;;;;;;;;4977463;28;19972;-92
2023/09/10 09:00:01;;;;;;;;;;;;;;;;;;4994926;28;19922;-92
2023/09/10 09:02:27;;;;;;;;;;;;;;;;;;4996135;28;20389;-92
2023/09/10 09:04:53;;;;;;;;;;;;;;;;;;4976466;28;19960;-91
2023/09/10 09:07:20;;;;;;;;;;;;;;;;;;4980533;28;19918;-88
2023/09/10 09:09:49;;;;;;;;;;;;;;;;;;4980111;28;19982;-88
2023/09/10 09:12:15;;;;;;;;;;;;;;;;;;4971573;28;19913;-88
2023/09/10 09:14:42;;;;;;;;;;;;;;;;;;4975654;28;19925;-89
2023/09/10 09:17:08;;;;;;;;;;;;;;;;;;4973911;28;19924;-88
2023/09/10 09:19:35;;;;;;;;;;;;;;;;;;4975652;28;20032;-88
2023/09/10 09:22:01;;;;;;;;;;;;;;;;;;4976391;28;19918;-89
2023/09/10 09:24:27;;;;;;;;;;;;;;;;;;4996549;28;20405;-88
2023/09/10 09:26:53;;;;;;;;;;;;;;;;;;4977945;28;19917;-88
2023/09/10 09:29:28;;;;;;;;;;;;;;;;;;4971534;28;19918;-88
2023/09/10 09:31:55;;;;;;;;;;;;;;;;;;4972419;28;19914;-87
2023/09/10 09:34:21;;;;;;;;;;;;;;;;;;4980435;28;19918;-87
2023/09/10 09:36:46;;;;;;;;;;;;;;;;;;4971716;28;19980;-86
2023/09/10 09:39:13;;;;;;;;;;;;;;;;;;4979704;28;19922;-86
2023/09/10 09:41:51;;;;;;;;;;;;;;;;;;4975423;28;19937;-87
2023/09/10 09:44:17;;;;;;;;;;;;;;;;;;4987398;28;20548;-86
2023/09/10 09:46:45;;;;;;;;;;;;;;;;;;4975273;28;20033;-87
2023/09/10 09:49:11;;;;;;;;;;;;;;;;;;4975065;28;20435;-86
2023/09/10 09:51:37;;;;;;;;;;;;;;;;;;4974967;28;19921;-87
2023/09/10 09:54:03;;;;;;;;;;;;;;;;;;4976720;28;19917;-88
2023/09/10 09:56:29;;;;;;;;;;;;;;;;;;4979999;28;19922;-88
2023/09/10 09:58:59;;;;;;;;;;;;;;;;;;4970503;28;19918;-87
2023/09/10 10:01:28;;;;;;;;;;;;;;;;;;4974488;28;19925;-86
2023/09/10 10:03:54;;;;;;;;;;;;;;;;;;4978770;28;20286;-86
2023/09/10 10:06:20;;;;;;;;;;;;;;;;;;4976611;28;19924;-86
2023/09/10 10:08:46;;;;;;;;;;;;;;;;;;4975717;28;19926;-87
2023/09/10 10:11:33;;;;;;;;;;;;;;;;;;4971829;28;19914;-84
2023/09/10 10:13:59;;;;;;;;;;;;;;;;;;4981372;28;19921;-86
2023/09/10 10:16:25;;;;;;;;;;;;;;;;;;4972286;28;20016;-86
2023/09/10 10:18:51;;;;;;;;;;;;;;;;;;4986566;28;20005;-87
2023/09/10 10:21:17;;;;;;;;;;;;;;;;;;4968952;28;19937;-85
2023/09/10 10:23:43;;;;;;;;;;;;;;;;;;4990539;28;19922;-87
2023/09/10 10:26:09;;;;;;;;;;;;;;;;;;4966907;28;19917;-87
2023/09/10 10:28:35;;;;;;;;;;;;;;;;;;4968175;28;19975;-90
2023/09/10 10:31:01;;;;;;;;;;;;;;;;;;4968546;28;19914;-87
2023/09/10 10:33:27;;;;;;;;;;;;;;;;;;4973111;28;20555;-88
2023/09/10 10:35:53;;;;;;;;;;;;;;;;;;4983642;28;19932;-88
2023/09/10 10:38:19;;;;;;;;;;;;;;;;;;4990839;28;19935;-86
2023/09/10 10:40:45;;;;;;;;;;;;;;;;;;4990808;28;19913;-87
2023/09/10 10:43:11;;;;;;;;;;;;;;;;;;4989050;28;19941;-87
2023/09/10 10:45:40;;;;;;;;;;;;;;;;;;4990377;28;19913;-86
2023/09/10 10:48:06;;;;;;;;;;;;;;;;;;5005752;28;19926;-87
2023/09/10 10:50:32;;;;;;;;;;;;;;;;;;4990563;28;20618;-86
2023/09/10 10:52:58;;;;;;;;;;;;;;;;;;4995763;28;19917;-88
2023/09/10 10:55:24;;;;;;;;;;;;;;;;;;4991011;28;19914;-87
2023/09/10 10:57:59;;;;;;;;;;;;;;;;;;4994017;28;19990;-87
2023/09/10 11:00:49;;;;;;;;;;;;;;;;;;4989281;28;20412;-87
2023/09/10 11:03:13;;;;;;;;;;;;;;;;;;5006642;28;19913;-88
2023/09/10 11:05:39;;;;;;;;;;;;;;;;;;4994048;28;19921;-87
2023/09/10 11:08:05;;;;;;;;;;;;;;;;;;4996961;28;20426;-88
2023/09/10 11:10:31;;;;;;;;;;;;;;;;;;4994319;28;19921;-88
2023/09/10 11:13:03;;;;;;;;;;;;;;;;;;4989470;28;20229;-87
2023/09/10 11:15:29;;;;;;;;;;;;;;;;;;4989092;28;19921;-88
2023/09/10 11:17:55;;;;;;;;;;;;;;;;;;5000914;28;19913;-88
2023/09/10 11:20:20;;;;;;;;;;;;;;;;;;4992042;28;20290;-88
2023/09/10 11:22:46;;;;;;;;;;;;;;;;;;4992294;28;19921;-87
2023/09/10 11:25:12;;;;;;;;;;;;;;;;;;4987936;28;19925;-87
2023/09/10 11:27:38;;;;;;;;;;;;;;;;;;4995090;28;19925;-87
2023/09/10 11:30:04;;;;;;;;;;;;;;;;;;4995395;28;19913;-89
2023/09/10 11:32:30;;;;;;;;;;;;;;;;;;4990527;28;19971;-88
2023/09/10 11:35:05;;;;;;;;;;;;;;;;;;4988258;28;19914;-88
2023/09/10 11:37:31;;;;;;;;;;;;;;;;;;4989169;28;19936;-88
2023/09/10 11:40:00;;;;;;;;;;;;;;;;;;4989399;28;19941;-86
2023/09/10 11:42:26;;;;;;;;;;;;;;;;;;4991419;28;19922;-87
2023/09/10 11:44:52;;;;;;;;;;;;;;;;;;4991507;28;19924;-88
2023/09/10 11:47:17;;;;;;;;;;;;;;;;;;4989701;28;19913;-89
2023/09/10 11:49:43;;;;;;;;;;;;;;;;;;4986578;28;19913;-88
2023/09/10 11:52:09;;;;;;;;;;;;;;;;;;4990491;28;19929;-86
2023/09/10 11:54:35;;;;;;;;;;;;;;;;;;5013575;28;20420;-87
2023/09/10 11:57:02;;;;;;;;;;;;;;;;;;4986700;28;19918;-88
2023/09/10 11:59:29;;;;;;;;;;;;;;;;;;4987827;28;20226;-89
2023/09/10 12:01:55;;;;;;;;;;;;;;;;;;4981392;28;20012;-89
2023/09/10 12:04:21;;;;;;;;;;;;;;;;;;4992068;28;20685;-89
2023/09/10 12:06:47;;;;;;;;;;;;;;;;;;5001963;28;19937;-88
2023/09/10 12:09:16;;;;;;;;;;;;;;;;;;4992835;28;19932;-88
2023/09/10 12:11:41;;;;;;;;;;;;;;;;;;4991028;28;19933;-88
2023/09/10 12:14:07;;;;;;;;;;;;;;;;;;4989854;28;20444;-88
2023/09/10 12:16:33;;;;;;;;;;;;;;;;;;4995339;28;19917;-88
2023/09/10 12:18:59;;;;;;;;;;;;;;;;;;4996597;28;19924;-88
2023/09/10 12:21:25;;;;;;;;;;;;;;;;;;4987605;28;20373;-88
2023/09/10 12:23:51;;;;;;;;;;;;;;;;;;4989337;28;19964;-88
2023/09/10 12:26:19;;;;;;;;;;;;;;;;;;4994917;28;19921;-89
2023/09/10 12:28:45;;;;;;;;;;;;;;;;;;4993433;28;19918;-88
2023/09/10 12:31:11;;;;;;;;;;;;;;;;;;4998750;28;19918;-89
2023/09/10 12:33:36;;;;;;;;;;;;;;;;;;4998025;28;19918;-90
2023/09/10 12:36:02;;;;;;;;;;;;;;;;;;4988029;28;20504;-89
2023/09/10 12:38:28;;;;;;;;;;;;;;;;;;4995023;28;19918;-88
2023/09/10 12:40:54;;;;;;;;;;;;;;;;;;4990841;28;20811;-89
2023/09/10 12:43:20;;;;;;;;;;;;;;;;;;4979764;28;20370;-89
2023/09/10 12:45:46;;;;;;;;;;;;;;;;;;4971708;28;19930;-89
2023/09/10 12:48:12;;;;;;;;;;;;;;;;;;4980976;28;19933;-89
2023/09/10 12:50:38;;;;;;;;;;;;;;;;;;4980455;28;20013;-89
2023/09/10 12:53:04;;;;;;;;;;;;;;;;;;4974271;28;19920;-88
2023/09/10 12:55:30;;;;;;;;;;;;;;;;;;4974661;28;19972;-90
2023/09/10 12:57:56;;;;;;;;;;;;;;;;;;4973236;28;20421;-89
2023/09/10 13:00:22;;;;;;;;;;;;;;;;;;4970774;28;19949;-89
2023/09/10 13:02:48;;;;;;;;;;;;;;;;;;4996138;28;19923;-89
2023/09/10 13:05:21;;;;;;;;;;;;;;;;;;4978590;28;20021;-89
2023/09/10 13:07:46;;;;;;;;;;;;;;;;;;4990124;28;19976;-91
2023/09/10 13:10:12;;;;;;;;;;;;;;;;;;4974565;28;20912;-91
2023/09/10 13:12:38;;;;;;;;;;;;;;;;;;4989548;28;19969;-91
2023/09/10 13:15:04;;;;;;;;;;;;;;;;;;4972204;28;20005;-91
2023/09/10 13:17:30;;;;;;;;;;;;;;;;;;4972516;28;19980;-90
2023/09/10 13:19:56;;;;;;;;;;;;;;;;;;4989999;28;19922;-90
2023/09/10 13:22:22;;;;;;;;;;;;;;;;;;4974757;28;19914;-90
2023/09/10 13:24:48;;;;;;;;;;;;;;;;;;4975049;28;19941;-90
2023/09/10 13:27:14;;;;;;;;;;;;;;;;;;4972317;28;19914;-90
2023/09/10 13:29:40;;;;;;;;;;;;;;;;;;4975616;28;19914;-92
2023/09/10 13:32:06;;;;;;;;;;;;;;;;;;4977766;28;20369;-91
2023/09/10 13:34:32;;;;;;;;;;;;;;;;;;4974284;28;19913;-91
2023/09/10 13:36:58;;;;;;;;;;;;;;;;;;4979043;28;19929;-90
2023/09/10 13:39:24;;;;;;;;;;;;;;;;;;4976359;28;20378;-90
2023/09/10 13:41:49;;;;;;;;;;;;;;;;;;4976106;28;19914;-91
2023/09/10 13:44:15;;;;;;;;;;;;;;;;;;4977149;28;19913;-91
2023/09/10 13:46:41;;;;;;;;;;;;;;;;;;4975014;28;19918;-88
2023/09/10 13:49:10;;;;;;;;;;;;;;;;;;4963839;28;20005;-88
2023/09/10 13:51:35;;;;;;;;;;;;;;;;;;4969707;28;19949;-88
2023/09/10 13:54:01;;;;;;;;;;;;;;;;;;4975919;28;20019;-88
2023/09/10 13:56:29;;;;;;;;;;;;;;;;;;4974272;28;20476;-88
2023/09/10 13:58:55;;;;;;;;;;;;;;;;;;4970151;28;19922;-87
2023/09/10 14:01:20;;;;;;;;;;;;;;;;;;4970687;28;19997;-88
2023/09/10 14:03:46;;;;;;;;;;;;;;;;;;4967039;28;19918;-89
2023/09/10 14:06:12;;;;;;;;;;;;;;;;;;4975931;28;19914;-88
2023/09/10 14:08:40;;;;;;;;;;;;;;;;;;4984523;28;19933;-93
2023/09/10 14:11:06;;;;;;;;;;;;;;;;;;4978218;28;19914;-93
2023/09/10 14:13:32;;;;;;;;;;;;;;;;;;4975000;28;20374;-92
2023/09/10 14:15:57;;;;;;;;;;;;;;;;;;4980969;28;19918;-92
2023/09/10 14:18:23;;;;;;;;;;;;;;;;;;4977299;28;19917;-91
2023/09/10 14:20:49;;;;;;;;;;;;;;;;;;4972820;28;19914;-90
2023/09/10 14:23:15;;;;;;;;;;;;;;;;;;4976500;28;19914;-91
2023/09/10 14:25:41;;;;;;;;;;;;;;;;;;4977279;28;20688;-91
2023/09/10 14:28:07;;;;;;;;;;;;;;;;;;4978558;28;19918;-91
2023/09/10 14:30:35;;;;;;;;;;;;;;;;;;4975187;28;19981;-91
2023/09/10 14:33:01;;;;;;;;;;;;;;;;;;4970671;28;19933;-91
2023/09/10 14:35:27;;;;;;;;;;;;;;;;;;4987403;28;20564;-91
2023/09/10 14:37:53;;;;;;;;;;;;;;;;;;4991149;28;19977;-91
2023/09/10 14:40:19;;;;;;;;;;;;;;;;;;4971479;28;19917;-91
2023/09/10 14:42:45;;;;;;;;;;;;;;;;;;4970805;28;19957;-92
2023/09/10 14:45:11;;;;;;;;;;;;;;;;;;4978597;28;20636;-91
2023/09/10 14:47:37;;;;;;;;;;;;;;;;;;4970309;28;19961;-91
2023/09/10 14:50:03;;;;;;;;;;;;;;;;;;4971693;28;20361;-91
2023/09/10 14:52:29;;;;;;;;;;;;;;;;;;4969175;28;19918;-91
2023/09/10 14:54:57;;;;;;;;;;;;;;;;;;4971736;28;20370;-91
2023/09/10 14:57:23;;;;;;;;;;;;;;;;;;4976190;28;20417;-90
2023/09/10 14:59:49;;;;;;;;;;;;;;;;;;4967995;28;19957;-91
2023/09/10 15:02:15;;;;;;;;;;;;;;;;;;4991417;28;19914;-90
2023/09/10 15:04:41;;;;;;;;;;;;;;;;;;4972638;28;19917;-90
2023/09/10 15:07:07;;;;;;;;;;;;;;;;;;4970109;28;19914;-89
2023/09/10 15:09:33;;;;;;;;;;;;;;;;;;4979199;28;19981;-90
2023/09/10 15:11:59;;;;;;;;;;;;;;;;;;4965235;28;19917;-89
2023/09/10 15:14:25;;;;;;;;;;;;;;;;;;4969063;28;19937;-90
2023/09/10 15:16:51;;;;;;;;;;;;;;;;;;4967482;28;20203;-89
2023/09/10 15:19:17;;;;;;;;;;;;;;;;;;4974209;28;19914;-89
2023/09/10 15:21:42;;;;;;;;;;;;;;;;;;4971977;28;19921;-90
2023/09/10 15:24:17;;;;;;;;;;;;;;;;;;4965835;28;20387;-88
2023/09/10 15:27:03;;;;;;;;;;;;;;;;;;4976559;28;19936;-90
2023/09/10 15:29:32;;;;;;;;;;;;;;;;;;4969172;28;19918;-90
2023/09/10 15:31:58;;;;;;;;;;;;;;;;;;4971408;28;19914;-90
2023/09/10 15:34:24;;;;;;;;;;;;;;;;;;4969880;28;19922;-90
2023/09/10 15:36:50;;;;;;;;;;;;;;;;;;4974337;28;19949;-92
2023/09/10 15:39:16;;;;;;;;;;;;;;;;;;4973662;28;19917;-91
2023/09/10 15:41:48;;;;;;;;;;;;;;;;;;4979507;28;19918;-90
2023/09/10 15:44:14;;;;;;;;;;;;;;;;;;4969930;28;19928;-90
2023/09/10 15:46:40;;;;;;;;;;;;;;;;;;4970799;28;19918;-92
2023/09/10 15:49:06;;;;;;;;;;;;;;;;;;4963160;28;19930;-90
2023/09/10 15:51:32;;;;;;;;;;;;;;;;;;4966370;28;19918;-90
2023/09/10 15:53:59;;;;;;;;;;;;;;;;;;4975456;28;19913;-90
2023/09/10 15:56:25;;;;;;;;;;;;;;;;;;4968840;28;19928;-90
2023/09/10 15:58:51;;;;;;;;;;;;;;;;;;4961235;28;19918;-88
2023/09/10 16:01:17;;;;;;;;;;;;;;;;;;4976942;28;19941;-90
2023/09/10 16:03:49;;;;;;;;;;;;;;;;;;4972019;28;19947;-89
2023/09/10 16:06:15;;;;;;;;;;;;;;;;;;4967181;28;20002;-92
2023/09/10 16:08:41;;;;;;;;;;;;;;;;;;4982506;28;20004;-93
2023/09/10 16:11:10;;;;;;;;;;;;;;;;;;4974152;28;19915;-94
2023/09/10 16:13:38;;;;;;;;;;;;;;;;;;4991071;28;22109;-94
2023/09/10 16:16:04;;;;;;;;;;;;;;;;;;4976056;28;19918;-92
2023/09/10 16:18:30;;;;;;;;;;;;;;;;;;4970218;28;19941;-92
2023/09/10 16:20:56;;;;;;;;;;;;;;;;;;4973849;28;20012;-92
2023/09/10 16:23:23;;;;;;;;;;;;;;;;;;4972024;28;19972;-94
2023/09/10 16:25:49;;;;;;;;;;;;;;;;;;4979799;28;19918;-94
2023/09/10 16:28:20;;;;;;;;;;;;;;;;;;5001254;28;19906;-94
2023/09/10 16:30:46;;;;;;;;;;;;;;;;;;4991910;23;20341;-90
2023/09/10 16:33:12;;;;;;;;;;;;;;;;;;4993128;28;19918;-94
2023/09/10 16:35:38;;;;;;;;;;;;;;;;;;4989290;28;20301;-92
2023/09/10 16:38:04;;;;;;;;;;;;;;;;;;4985576;28;20000;-91
2023/09/10 16:40:30;;;;;;;;;;;;;;;;;;4980003;28;19953;-90